Time;durP1;ratioP1;P1;durP2;ratioP2;P2;SDS_P1;SDS_P2;PMS_P1;PMS_P2;Temp;Humidity;BMP_temperature;BMP_pressure;BME280_temperature;BME280_humidity;BME280_pressure;Samples;Min_cycle;Max_cycle;Signal;HPM_P1;HPM_P2
2022/05/25 00:01:04;;;;;;;9.20;8.20;;;;;;;-128.00;-1.00;-1.00;100057;1302;1003749;-26
2022/05/25 00:03:34;;;;;;;7.40;6.40;;;;;;;-128.00;-1.00;-1.00;99963;1302;1004393;-28
2022/05/25 00:06:05;;;;;;;7.90;7.20;;;;;;;-128.00;-1.00;-1.00;99971;1302;1003648;-25
2022/05/25 00:08:34;;;;;;;7.80;7.00;;;;;;;-128.00;-1.00;-1.00;99985;1302;1003260;-28
2022/05/25 00:11:03;;;;;;;8.60;7.10;;;;;;;-128.00;-1.00;-1.00;100062;1302;1003984;-30
2022/05/25 00:13:32;;;;;;;7.90;5.80;;;;;;;-128.00;-1.00;-1.00;100002;1302;1004041;-27
2022/05/25 00:16:01;;;;;;;6.90;6.40;;;;;;;-128.00;-1.00;-1.00;100011;1302;1003582;-24
2022/05/25 00:18:30;;;;;;;7.90;7.10;;;;;;;-128.00;-1.00;-1.00;99968;1302;1003637;-29
2022/05/25 00:21:00;;;;;;;8.10;7.10;;;;;;;-128.00;-1.00;-1.00;99988;1302;1003092;-28
2022/05/25 00:23:29;;;;;;;8.70;6.70;;;;;;;-128.00;-1.00;-1.00;100059;1302;1004149;-24
2022/05/25 00:25:58;;;;;;;8.80;6.10;;;;;;;-128.00;-1.00;-1.00;100017;1302;1004317;-27
2022/05/25 00:28:27;;;;;;;6.90;6.30;;;;;;;-128.00;-1.00;-1.00;100014;1302;1004140;-28
2022/05/25 00:30:57;;;;;;;9.30;7.40;;;;;;;-128.00;-1.00;-1.00;99835;1302;1003492;-23
2022/05/25 00:33:27;;;;;;;8.10;6.80;;;;;;;-128.00;-1.00;-1.00;99997;1302;1003127;-28
2022/05/25 00:35:56;;;;;;;9.30;6.70;;;;;;;-128.00;-1.00;-1.00;100008;1302;1003333;-28
2022/05/25 00:38:25;;;;;;;8.30;7.60;;;;;;;-128.00;-1.00;-1.00;100003;1302;1004337;-27
2022/05/25 00:40:54;;;;;;;7.10;6.50;;;;;;;-128.00;-1.00;-1.00;100058;1302;1002970;-28
2022/05/25 00:43:23;;;;;;;7.50;6.60;;;;;;;-128.00;-1.00;-1.00;99993;1302;1003781;-28
2022/05/25 00:45:55;;;;;;;6.80;6.20;;;;;;;-128.00;-1.00;-1.00;100003;1303;1004203;-27
2022/05/25 00:48:32;;;;;;;8.00;5.90;;;;;;;-128.00;-1.00;-1.00;100062;1302;1003175;-28
2022/05/25 00:53:34;;;;;;;5.70;4.90;;;;;;;-128.00;-1.00;-1.00;100017;1302;1003262;-29
2022/05/25 00:56:04;;;;;;;8.10;7.40;;;;;;;-128.00;-1.00;-1.00;99999;1302;1004346;-25
2022/05/25 00:58:33;;;;;;;6.50;5.70;;;;;;;-128.00;-1.00;-1.00;100054;1302;1003819;-25
2022/05/25 01:01:04;;;;;;;7.70;6.50;;;;;;;-128.00;-1.00;-1.00;99969;1302;1004587;-28
2022/05/25 01:03:33;;;;;;;6.50;6.00;;;;;;;-128.00;-1.00;-1.00;99961;1302;1002728;-28
2022/05/25 01:06:10;;;;;;;6.20;5.60;;;;;;;-128.00;-1.00;-1.00;100068;1302;1003740;-25
2022/05/25 01:08:47;;;;;;;6.70;6.10;;;;;;;-128.00;-1.00;-1.00;100031;1302;1003473;-28
2022/05/25 01:11:25;;;;;;;8.10;7.40;;;;;;;-128.00;-1.00;-1.00;99985;1302;1003239;-28
2022/05/25 01:14:12;;;;;;;9.00;7.40;;;;;;;-128.00;-1.00;-1.00;99965;1302;1003026;-29
2022/05/25 01:16:48;;;;;;;8.20;5.70;;;;;;;-128.00;-1.00;-1.00;100019;1302;1003176;-25
2022/05/25 01:19:23;;;;;;;6.80;5.70;;;;;;;-128.00;-1.00;-1.00;100036;1302;1004139;-24
2022/05/25 01:21:56;;;;;;;6.20;5.30;;;;;;;-128.00;-1.00;-1.00;99980;1302;1004041;-25
2022/05/25 01:24:29;;;;;;;6.10;5.60;;;;;;;-128.00;-1.00;-1.00;99954;1301;1003321;-28
2022/05/25 01:27:05;;;;;;;9.30;7.90;;;;;;;-128.00;-1.00;-1.00;99997;1302;1003750;-28
2022/05/25 01:29:40;;;;;;;8.50;7.30;;;;;;;-128.00;-1.00;-1.00;100014;1302;1003709;-29
2022/05/25 01:32:18;;;;;;;8.90;6.50;;;;;;;-128.00;-1.00;-1.00;99941;1302;1003299;-24
2022/05/25 01:34:52;;;;;;;19.80;7.90;;;;;;;-128.00;-1.00;-1.00;99969;1302;1003077;-28
2022/05/25 01:37:23;;;;;;;9.50;6.00;;;;;;;-128.00;-1.00;-1.00;99985;1302;1004109;-28
2022/05/25 01:40:08;;;;;;;10.20;9.10;;;;;;;-128.00;-1.00;-1.00;99938;1302;1003785;-24
2022/05/25 01:42:43;;;;;;;6.70;5.80;;;;;;;-128.00;-1.00;-1.00;99961;1302;1002784;-29
2022/05/25 01:45:12;;;;;;;7.20;6.30;;;;;;;-128.00;-1.00;-1.00;100014;1302;1003745;-24
2022/05/25 01:47:43;;;;;;;8.30;7.50;;;;;;;-128.00;-1.00;-1.00;99945;1301;1004208;-24
2022/05/25 01:50:16;;;;;;;6.40;5.90;;;;;;;-128.00;-1.00;-1.00;100016;1302;1002804;-24
2022/05/25 01:52:48;;;;;;;8.60;7.30;;;;;;;-128.00;-1.00;-1.00;99997;1302;1004629;-28
2022/05/25 01:55:20;;;;;;;7.20;6.00;;;;;;;-128.00;-1.00;-1.00;100063;1302;1004098;-28
2022/05/25 01:57:51;;;;;;;5.90;5.40;;;;;;;-128.00;-1.00;-1.00;99982;1301;1003442;-28
2022/05/25 02:00:26;;;;;;;7.10;5.60;;;;;;;-128.00;-1.00;-1.00;99951;1302;1004488;-34
2022/05/25 02:05:27;;;;;;;6.60;5.80;;;;;;;-128.00;-1.00;-1.00;99987;1301;1004435;-24
2022/05/25 02:08:00;;;;;;;7.70;6.90;;;;;;;-128.00;-1.00;-1.00;99988;1302;1004561;-28
2022/05/25 02:10:36;;;;;;;7.80;6.60;;;;;;;-128.00;-1.00;-1.00;100042;1302;1003196;-24
2022/05/25 02:13:12;;;;;;;6.00;5.40;;;;;;;-128.00;-1.00;-1.00;100005;1302;1002920;-24
2022/05/25 02:15:42;;;;;;;7.40;6.40;;;;;;;-128.00;-1.00;-1.00;99979;1302;1003271;-28
2022/05/25 02:18:14;;;;;;;7.90;6.10;;;;;;;-128.00;-1.00;-1.00;100003;1302;1003495;-28
2022/05/25 02:20:50;;;;;;;6.00;5.40;;;;;;;-128.00;-1.00;-1.00;100026;1301;1003213;-28
2022/05/25 02:23:20;;;;;;;6.10;5.60;;;;;;;-128.00;-1.00;-1.00;99921;1302;1003476;-25
2022/05/25 02:25:54;;;;;;;8.20;7.40;;;;;;;-128.00;-1.00;-1.00;100003;1302;1004080;-25
2022/05/25 02:28:26;;;;;;;7.70;6.80;;;;;;;-128.00;-1.00;-1.00;99955;1302;1004439;-29
2022/05/25 02:30:57;;;;;;;7.20;6.60;;;;;;;-128.00;-1.00;-1.00;100012;1302;1003117;-28
2022/05/25 02:33:31;;;;;;;10.10;9.20;;;;;;;-128.00;-1.00;-1.00;99989;1302;1003893;-25
2022/05/25 02:36:00;;;;;;;9.40;8.60;;;;;;;-128.00;-1.00;-1.00;99987;1302;1003171;-28
2022/05/25 02:38:29;;;;;;;7.90;6.00;;;;;;;-128.00;-1.00;-1.00;100060;1302;1003949;-25
2022/05/25 02:41:03;;;;;;;9.50;6.70;;;;;;;-128.00;-1.00;-1.00;100022;1302;1003607;-24
2022/05/25 02:43:35;;;;;;;7.50;6.50;;;;;;;-128.00;-1.00;-1.00;100023;1302;1004093;-24
2022/05/25 02:46:06;;;;;;;9.50;6.20;;;;;;;-128.00;-1.00;-1.00;100013;1302;1003287;-26
2022/05/25 02:48:36;;;;;;;7.60;6.90;;;;;;;-128.00;-1.00;-1.00;99931;1302;1005403;-28
2022/05/25 02:51:05;;;;;;;7.20;6.30;;;;;;;-128.00;-1.00;-1.00;99837;1302;1004140;-25
2022/05/25 02:53:34;;;;;;;6.60;6.00;;;;;;;-128.00;-1.00;-1.00;100045;1301;1003969;-29
2022/05/25 02:56:05;;;;;;;9.40;7.20;;;;;;;-128.00;-1.00;-1.00;100019;1301;1002868;-26
2022/05/25 02:58:34;;;;;;;7.10;5.40;;;;;;;-128.00;-1.00;-1.00;100024;1302;1002888;-24
2022/05/25 03:01:04;;;;;;;7.50;6.80;;;;;;;-128.00;-1.00;-1.00;100018;1301;1003289;-23
2022/05/25 03:03:35;;;;;;;7.00;6.40;;;;;;;-128.00;-1.00;-1.00;100016;1302;1003725;-28
2022/05/25 03:06:05;;;;;;;8.00;6.10;;;;;;;-128.00;-1.00;-1.00;100018;1302;1003039;-28
2022/05/25 03:08:35;;;;;;;6.90;6.30;;;;;;;-128.00;-1.00;-1.00;99980;1302;1003850;-28
2022/05/25 03:11:04;;;;;;;10.20;8.90;;;;;;;-128.00;-1.00;-1.00;100008;1302;1004384;-24
2022/05/25 03:13:35;;;;;;;10.00;8.80;;;;;;;-128.00;-1.00;-1.00;99944;1302;1004123;-28
2022/05/25 03:16:05;;;;;;;7.50;6.70;;;;;;;-128.00;-1.00;-1.00;99831;1302;1003510;-26
2022/05/25 03:18:34;;;;;;;8.00;6.70;;;;;;;-128.00;-1.00;-1.00;100055;1302;1004157;-30
2022/05/25 03:21:04;;;;;;;5.80;5.20;;;;;;;-128.00;-1.00;-1.00;99943;1302;1004102;-29
2022/05/25 03:23:32;;;;;;;6.40;5.80;;;;;;;-128.00;-1.00;-1.00;100042;1300;1004820;-28
2022/05/25 03:26:01;;;;;;;5.90;4.70;;;;;;;-128.00;-1.00;-1.00;100048;1302;1004432;-24
2022/05/25 03:28:30;;;;;;;11.90;6.30;;;;;;;-128.00;-1.00;-1.00;100037;1302;1003130;-30
2022/05/25 03:30:59;;;;;;;6.50;5.90;;;;;;;-128.00;-1.00;-1.00;100020;1302;1003746;-28
2022/05/25 03:33:28;;;;;;;5.70;5.20;;;;;;;-128.00;-1.00;-1.00;100008;1302;1004633;-24
2022/05/25 03:35:57;;;;;;;6.90;5.10;;;;;;;-128.00;-1.00;-1.00;99971;1302;1004461;-29
2022/05/25 03:38:27;;;;;;;6.00;5.30;;;;;;;-128.00;-1.00;-1.00;99987;1302;1003715;-28
2022/05/25 03:40:57;;;;;;;4.80;4.40;;;;;;;-128.00;-1.00;-1.00;99991;1302;1003685;-24
2022/05/25 03:43:30;;;;;;;5.30;4.60;;;;;;;-128.00;-1.00;-1.00;99984;1302;1002673;-25
2022/05/25 03:45:59;;;;;;;7.80;6.80;;;;;;;-128.00;-1.00;-1.00;99991;1301;1002909;-25
2022/05/25 03:48:28;;;;;;;6.10;5.30;;;;;;;-128.00;-1.00;-1.00;100063;1302;1003297;-25
2022/05/25 03:50:57;;;;;;;7.80;7.10;;;;;;;-128.00;-1.00;-1.00;100077;1299;1004145;-28
2022/05/25 03:53:26;;;;;;;6.40;5.60;;;;;;;-128.00;-1.00;-1.00;100033;1302;1004619;-24
2022/05/25 03:55:55;;;;;;;6.40;5.80;;;;;;;-128.00;-1.00;-1.00;100041;1302;1003329;-27
2022/05/25 03:58:24;;;;;;;10.10;5.60;;;;;;;-128.00;-1.00;-1.00;99890;1302;1004189;-28
2022/05/25 04:00:53;;;;;;;6.40;5.90;;;;;;;-128.00;-1.00;-1.00;100025;1302;1003073;-30
2022/05/25 04:03:22;;;;;;;6.40;5.20;;;;;;;-128.00;-1.00;-1.00;100033;1302;1003360;-28
2022/05/25 04:05:51;;;;;;;4.70;4.20;;;;;;;-128.00;-1.00;-1.00;100025;1302;1003043;-24
2022/05/25 04:08:20;;;;;;;5.20;4.40;;;;;;;-128.00;-1.00;-1.00;100034;1302;1003571;-24
2022/05/25 04:10:49;;;;;;;6.70;4.50;;;;;;;-128.00;-1.00;-1.00;99975;1302;1004090;-24
2022/05/25 04:13:20;;;;;;;5.60;5.20;;;;;;;-128.00;-1.00;-1.00;100008;1301;1003343;-28
2022/05/25 04:15:49;;;;;;;5.70;5.10;;;;;;;-128.00;-1.00;-1.00;99702;1302;1438393;-28
2022/05/25 04:18:18;;;;;;;6.50;5.80;;;;;;;-128.00;-1.00;-1.00;99998;1302;1003749;-24
2022/05/25 04:20:47;;;;;;;6.00;5.30;;;;;;;-128.00;-1.00;-1.00;100048;1302;1004179;-24
2022/05/25 04:23:16;;;;;;;7.40;5.70;;;;;;;-128.00;-1.00;-1.00;100002;1302;1003450;-27
2022/05/25 04:25:45;;;;;;;7.20;5.20;;;;;;;-128.00;-1.00;-1.00;100050;1302;1003766;-29
2022/05/25 04:28:14;;;;;;;5.80;5.20;;;;;;;-128.00;-1.00;-1.00;99903;1302;1003328;-24
2022/05/25 04:30:43;;;;;;;6.10;5.10;;;;;;;-128.00;-1.00;-1.00;100010;1301;1003654;-24
2022/05/25 04:33:13;;;;;;;9.30;6.20;;;;;;;-128.00;-1.00;-1.00;100002;1302;1003389;-28
2022/05/25 04:35:43;;;;;;;6.00;5.30;;;;;;;-128.00;-1.00;-1.00;99999;1302;1003339;-25
2022/05/25 04:38:13;;;;;;;6.00;5.30;;;;;;;-128.00;-1.00;-1.00;99947;1302;1004096;-25
2022/05/25 04:40:43;;;;;;;6.30;5.10;;;;;;;-128.00;-1.00;-1.00;100058;1302;1003489;-30
2022/05/25 04:43:14;;;;;;;4.80;4.40;;;;;;;-128.00;-1.00;-1.00;99972;1302;1003836;-24
2022/05/25 04:45:44;;;;;;;5.50;4.40;;;;;;;-128.00;-1.00;-1.00;99998;1302;1003773;-27
2022/05/25 04:48:14;;;;;;;5.20;4.30;;;;;;;-128.00;-1.00;-1.00;99956;1302;1004560;-24
2022/05/25 04:50:44;;;;;;;9.70;5.60;;;;;;;-128.00;-1.00;-1.00;100056;1302;1004011;-30
2022/05/25 04:53:14;;;;;;;5.90;5.20;;;;;;;-128.00;-1.00;-1.00;99973;1302;1003337;-26
2022/05/25 04:58:19;;;;;;;8.00;7.30;;;;;;;-128.00;-1.00;-1.00;99990;1302;1004115;-30
2022/05/25 05:00:48;;;;;;;7.60;5.20;;;;;;;-128.00;-1.00;-1.00;100048;1302;1003847;-30
2022/05/25 05:03:18;;;;;;;8.00;6.20;;;;;;;-128.00;-1.00;-1.00;100010;1301;1003656;-26
2022/05/25 05:05:47;;;;;;;5.70;5.20;;;;;;;-128.00;-1.00;-1.00;99841;1302;1004548;-23
2022/05/25 05:08:16;;;;;;;6.70;5.60;;;;;;;-128.00;-1.00;-1.00;100004;1302;1003017;-25
2022/05/25 05:10:45;;;;;;;5.40;4.70;;;;;;;-128.00;-1.00;-1.00;99999;1302;1003351;-25
2022/05/25 05:13:14;;;;;;;8.90;6.30;;;;;;;-128.00;-1.00;-1.00;100097;1302;1003639;-26
2022/05/25 05:15:48;;;;;;;10.80;5.30;;;;;;;-128.00;-1.00;-1.00;100017;1301;1003559;-31
2022/05/25 05:18:18;;;;;;;6.60;5.10;;;;;;;-128.00;-1.00;-1.00;100046;1302;1003463;-25
2022/05/25 05:20:47;;;;;;;5.00;4.60;;;;;;;-128.00;-1.00;-1.00;99963;1302;1004345;-29
2022/05/25 05:23:16;;;;;;;7.90;4.70;;;;;;;-128.00;-1.00;-1.00;100078;1301;1004042;-29
2022/05/25 05:25:45;;;;;;;5.20;4.20;;;;;;;-128.00;-1.00;-1.00;99987;1302;1004989;-25
2022/05/25 05:28:17;;;;;;;5.10;4.70;;;;;;;-128.00;-1.00;-1.00;100013;1302;1004242;-25
2022/05/25 05:30:48;;;;;;;4.10;3.70;;;;;;;-128.00;-1.00;-1.00;100028;1302;1003201;-28
2022/05/25 05:33:17;;;;;;;5.60;4.80;;;;;;;-128.00;-1.00;-1.00;100036;1302;1003989;-25
2022/05/25 05:35:48;;;;;;;4.80;4.30;;;;;;;-128.00;-1.00;-1.00;100078;1302;1003939;-25
2022/05/25 05:38:16;;;;;;;4.90;4.40;;;;;;;-128.00;-1.00;-1.00;100029;1302;1002763;-29
2022/05/25 05:40:45;;;;;;;4.50;3.80;;;;;;;-128.00;-1.00;-1.00;99921;1302;1003336;-26
2022/05/25 05:43:14;;;;;;;4.20;3.80;;;;;;;-128.00;-1.00;-1.00;100013;1302;1003346;-31
2022/05/25 05:45:43;;;;;;;4.90;3.80;;;;;;;-128.00;-1.00;-1.00;99855;1302;1003731;-30
2022/05/25 05:48:15;;;;;;;4.60;3.50;;;;;;;-128.00;-1.00;-1.00;100086;1302;1003750;-23
2022/05/25 05:50:45;;;;;;;4.30;3.80;;;;;;;-128.00;-1.00;-1.00;100008;1302;1003995;-25
2022/05/25 05:53:15;;;;;;;5.30;4.10;;;;;;;-128.00;-1.00;-1.00;100034;1302;1003738;-25
2022/05/25 05:55:44;;;;;;;6.70;4.20;;;;;;;-128.00;-1.00;-1.00;100012;1302;1004341;-27
2022/05/25 05:58:13;;;;;;;4.60;3.70;;;;;;;-128.00;-1.00;-1.00;99895;1302;1004124;-30
2022/05/25 06:00:42;;;;;;;6.40;4.90;;;;;;;-128.00;-1.00;-1.00;100014;1302;1003587;-30
2022/05/25 06:03:13;;;;;;;4.80;4.00;;;;;;;-128.00;-1.00;-1.00;100058;1302;1003473;-25
2022/05/25 06:05:44;;;;;;;7.60;5.20;;;;;;;-128.00;-1.00;-1.00;100038;1302;1003396;-27
2022/05/25 06:08:16;;;;;;;6.60;4.90;;;;;;;-128.00;-1.00;-1.00;100018;1302;1003632;-30
2022/05/25 06:10:45;;;;;;;5.50;5.00;;;;;;;-128.00;-1.00;-1.00;100023;1302;1003247;-30
2022/05/25 06:13:14;;;;;;;8.40;4.80;;;;;;;-128.00;-1.00;-1.00;99981;1302;1003769;-25
2022/05/25 06:20:52;;;;;;;7.80;5.60;;;;;;;-128.00;-1.00;-1.00;99312;1302;1003223;-27
2022/05/25 06:23:21;;;;;;;7.80;4.30;;;;;;;-128.00;-1.00;-1.00;100026;1301;1004148;-24
2022/05/25 06:25:50;;;;;;;5.70;4.90;;;;;;;-128.00;-1.00;-1.00;99976;1302;1003120;-25
2022/05/25 06:28:19;;;;;;;3.80;3.30;;;;;;;-128.00;-1.00;-1.00;100041;1302;1004314;-25
2022/05/25 06:30:48;;;;;;;5.20;4.50;;;;;;;-128.00;-1.00;-1.00;100023;1302;1003724;-31
2022/05/25 06:33:17;;;;;;;8.70;4.90;;;;;;;-128.00;-1.00;-1.00;100038;1302;1004585;-31
2022/05/25 06:35:46;;;;;;;8.80;5.50;;;;;;;-128.00;-1.00;-1.00;99979;1302;1003669;-31
2022/05/25 06:38:16;;;;;;;6.40;4.60;;;;;;;-128.00;-1.00;-1.00;99846;1302;1003303;-31
2022/05/25 06:40:45;;;;;;;6.30;5.20;;;;;;;-128.00;-1.00;-1.00;99990;1302;1003685;-30
2022/05/25 06:43:14;;;;;;;3.50;3.00;;;;;;;-128.00;-1.00;-1.00;100037;1302;1003438;-25
2022/05/25 06:45:43;;;;;;;2.60;2.30;;;;;;;-128.00;-1.00;-1.00;99971;1302;1003730;-25
2022/05/25 06:48:12;;;;;;;1.90;1.80;;;;;;;-128.00;-1.00;-1.00;100022;1302;1003827;-25
2022/05/25 06:50:41;;;;;;;2.30;2.10;;;;;;;-128.00;-1.00;-1.00;100030;1302;1003258;-31
2022/05/25 06:53:10;;;;;;;2.90;2.10;;;;;;;-128.00;-1.00;-1.00;100069;1302;1003105;-31
2022/05/25 06:55:39;;;;;;;3.70;1.10;;;;;;;-128.00;-1.00;-1.00;100039;1302;1004107;-30
2022/05/25 06:58:08;;;;;;;2.10;1.80;;;;;;;-128.00;-1.00;-1.00;100065;1302;1003062;-25
2022/05/25 07:00:37;;;;;;;2.20;1.90;;;;;;;-128.00;-1.00;-1.00;99990;1302;1003732;-25
2022/05/25 07:03:06;;;;;;;5.50;2.60;;;;;;;-128.00;-1.00;-1.00;99998;1302;1004305;-31
2022/05/25 07:05:35;;;;;;;3.10;1.90;;;;;;;-128.00;-1.00;-1.00;100045;1302;1003615;-25
2022/05/25 07:08:04;;;;;;;5.70;2.10;;;;;;;-128.00;-1.00;-1.00;100047;1302;1004475;-30
2022/05/25 07:10:33;;;;;;;2.60;1.80;;;;;;;-128.00;-1.00;-1.00;99992;1302;1003913;-33
2022/05/25 07:13:02;;;;;;;3.80;2.70;;;;;;;-128.00;-1.00;-1.00;100084;1302;1003640;-30
2022/05/25 07:15:31;;;;;;;2.60;2.30;;;;;;;-128.00;-1.00;-1.00;99990;1302;1003298;-25
2022/05/25 07:18:00;;;;;;;1.40;1.00;;;;;;;-128.00;-1.00;-1.00;99972;1301;1003362;-33
2022/05/25 07:20:29;;;;;;;2.90;1.90;;;;;;;-128.00;-1.00;-1.00;100003;1302;1003940;-25
2022/05/25 07:22:58;;;;;;;4.20;1.40;;;;;;;-128.00;-1.00;-1.00;99937;1302;1003519;-31
2022/05/25 07:25:27;;;;;;;1.90;1.50;;;;;;;-128.00;-1.00;-1.00;99932;1302;1004004;-29
2022/05/25 07:27:56;;;;;;;1.50;1.20;;;;;;;-128.00;-1.00;-1.00;100047;1302;1004560;-27
2022/05/25 07:30:25;;;;;;;2.90;2.20;;;;;;;-128.00;-1.00;-1.00;100052;1302;1003762;-25
2022/05/25 07:32:54;;;;;;;1.70;1.60;;;;;;;-128.00;-1.00;-1.00;100097;1301;1003062;-30
2022/05/25 07:35:23;;;;;;;2.20;1.60;;;;;;;-128.00;-1.00;-1.00;100120;1302;1003754;-25
2022/05/25 07:37:53;;;;;;;1.50;1.30;;;;;;;-128.00;-1.00;-1.00;100023;1302;1004222;-25
2022/05/25 07:40:27;;;;;;;1.00;0.90;;;;;;;-128.00;-1.00;-1.00;100031;1302;1003658;-30
2022/05/25 07:42:59;;;;;;;1.60;1.20;;;;;;;-128.00;-1.00;-1.00;99940;1302;1004104;-25
2022/05/25 07:45:29;;;;;;;8.50;1.70;;;;;;;-128.00;-1.00;-1.00;99961;1302;1004643;-25
2022/05/25 07:47:58;;;;;;;2.40;1.70;;;;;;;-128.00;-1.00;-1.00;100078;1301;1003817;-30
2022/05/25 07:50:27;;;;;;;4.40;1.70;;;;;;;-128.00;-1.00;-1.00;100038;1302;1003246;-30
2022/05/25 07:52:57;;;;;;;1.80;1.60;;;;;;;-128.00;-1.00;-1.00;100079;1302;1002989;-23
2022/05/25 07:55:26;;;;;;;5.80;2.20;;;;;;;-128.00;-1.00;-1.00;99295;1302;1004193;-25
2022/05/25 07:57:55;;;;;;;3.50;1.90;;;;;;;-128.00;-1.00;-1.00;100029;1302;1003327;-27
2022/05/25 08:00:25;;;;;;;1.60;1.30;;;;;;;-128.00;-1.00;-1.00;100014;1302;1003934;-29
2022/05/25 08:08:00;;;;;;;2.10;1.20;;;;;;;-128.00;-1.00;-1.00;100087;1302;1003087;-24
2022/05/25 08:10:29;;;;;;;3.70;2.60;;;;;;;-128.00;-1.00;-1.00;100024;1302;1003637;-25
2022/05/25 08:12:58;;;;;;;3.00;2.20;;;;;;;-128.00;-1.00;-1.00;100092;1302;1004517;-29
2022/05/25 08:15:28;;;;;;;3.70;1.60;;;;;;;-128.00;-1.00;-1.00;100010;1302;1004244;-30
2022/05/25 08:17:57;;;;;;;4.40;2.10;;;;;;;-128.00;-1.00;-1.00;100023;1302;1004702;-30
2022/05/25 08:20:26;;;;;;;4.10;2.40;;;;;;;-128.00;-1.00;-1.00;100055;1301;1004055;-31
2022/05/25 08:22:55;;;;;;;3.40;2.50;;;;;;;-128.00;-1.00;-1.00;100061;1301;1003701;-30
2022/05/25 08:25:24;;;;;;;2.00;1.60;;;;;;;-128.00;-1.00;-1.00;100058;1302;1003988;-30
2022/05/25 08:27:54;;;;;;;3.90;1.90;;;;;;;-128.00;-1.00;-1.00;100047;1302;1002998;-25
2022/05/25 08:30:23;;;;;;;3.90;2.40;;;;;;;-128.00;-1.00;-1.00;100015;1302;1004348;-30
2022/05/25 08:32:52;;;;;;;1.80;1.70;;;;;;;-128.00;-1.00;-1.00;99840;1302;1004027;-30
2022/05/25 08:35:21;;;;;;;2.80;2.00;;;;;;;-128.00;-1.00;-1.00;100054;1302;1003945;-32
2022/05/25 08:37:50;;;;;;;3.40;1.80;;;;;;;-128.00;-1.00;-1.00;100066;1302;1003631;-30
2022/05/25 08:40:20;;;;;;;2.30;1.40;;;;;;;-128.00;-1.00;-1.00;99777;1302;1004223;-30
2022/05/25 08:42:52;;;;;;;1.10;0.70;;;;;;;-128.00;-1.00;-1.00;100039;1302;1004157;-30
2022/05/25 08:45:24;;;;;;;1.80;0.60;;;;;;;-128.00;-1.00;-1.00;100053;1302;1003715;-25
2022/05/25 08:47:56;;;;;;;4.20;0.80;;;;;;;-128.00;-1.00;-1.00;99875;1302;1003175;-26
2022/05/25 08:50:25;;;;;;;0.70;0.50;;;;;;;-128.00;-1.00;-1.00;99975;1302;1003168;-25
2022/05/25 08:52:56;;;;;;;1.40;1.10;;;;;;;-128.00;-1.00;-1.00;100081;1302;1004430;-30
2022/05/25 08:55:31;;;;;;;1.40;0.80;;;;;;;-128.00;-1.00;-1.00;100051;1302;1003526;-24
2022/05/25 08:58:00;;;;;;;1.90;0.80;;;;;;;-128.00;-1.00;-1.00;100050;1302;1003624;-26
2022/05/25 09:00:29;;;;;;;1.40;0.90;;;;;;;-128.00;-1.00;-1.00;100077;1302;1003835;-25
2022/05/25 09:03:06;;;;;;;1.20;1.00;;;;;;;-128.00;-1.00;-1.00;100063;1302;1003348;-26
2022/05/25 09:05:38;;;;;;;1.50;0.90;;;;;;;-128.00;-1.00;-1.00;99998;1302;1004246;-31
2022/05/25 09:08:11;;;;;;;2.60;1.40;;;;;;;-128.00;-1.00;-1.00;99875;1302;1003340;-30
2022/05/25 09:10:43;;;;;;;2.20;1.70;;;;;;;-128.00;-1.00;-1.00;100013;1302;1003929;-31
2022/05/25 09:13:15;;;;;;;1.40;0.80;;;;;;;-128.00;-1.00;-1.00;100051;1302;1003964;-25
2022/05/25 09:18:19;;;;;;;1.40;0.80;;;;;;;-128.00;-1.00;-1.00;99799;1302;1003695;-31
2022/05/25 09:20:49;;;;;;;1.40;0.70;;;;;;;-128.00;-1.00;-1.00;99878;1302;1004463;-31
2022/05/25 09:23:18;;;;;;;2.00;0.80;;;;;;;-128.00;-1.00;-1.00;100063;1302;1004281;-31
2022/05/25 09:25:47;;;;;;;1.40;1.00;;;;;;;-128.00;-1.00;-1.00;100057;1302;1003401;-27
2022/05/25 09:28:19;;;;;;;1.60;0.60;;;;;;;-128.00;-1.00;-1.00;100055;1302;1004231;-31
2022/05/25 09:30:50;;;;;;;2.40;0.70;;;;;;;-128.00;-1.00;-1.00;100007;1302;1004915;-25
2022/05/25 09:33:21;;;;;;;1.30;1.10;;;;;;;-128.00;-1.00;-1.00;100051;1302;1003450;-24
2022/05/25 09:35:53;;;;;;;1.20;0.80;;;;;;;-128.00;-1.00;-1.00;100023;1302;1003754;-25
2022/05/25 09:38:30;;;;;;;1.20;0.90;;;;;;;-128.00;-1.00;-1.00;100057;1302;1003439;-30
2022/05/25 09:41:04;;;;;;;1.40;0.70;;;;;;;-128.00;-1.00;-1.00;100015;1302;1003477;-26
2022/05/25 09:43:33;;;;;;;2.30;1.10;;;;;;;-128.00;-1.00;-1.00;99852;1302;1003349;-30
2022/05/25 09:46:08;;;;;;;1.00;0.80;;;;;;;-128.00;-1.00;-1.00;100028;1301;1003748;-30
2022/05/25 09:48:47;;;;;;;1.60;1.20;;;;;;;-128.00;-1.00;-1.00;99987;1302;1003785;-25
2022/05/25 09:51:22;;;;;;;1.60;0.90;;;;;;;-128.00;-1.00;-1.00;99981;1302;1003761;-30
2022/05/25 09:53:54;;;;;;;2.50;1.10;;;;;;;-128.00;-1.00;-1.00;99984;1302;1003987;-25
2022/05/25 09:56:29;;;;;;;2.00;0.90;;;;;;;-128.00;-1.00;-1.00;100030;1302;1003720;-28
2022/05/25 09:59:03;;;;;;;2.10;0.80;;;;;;;-128.00;-1.00;-1.00;100066;1302;1003760;-32
2022/05/25 10:01:39;;;;;;;1.20;0.70;;;;;;;-128.00;-1.00;-1.00;100146;1298;1004091;-32
2022/05/25 10:04:09;;;;;;;2.00;0.70;;;;;;;-128.00;-1.00;-1.00;100169;1299;1003794;-25
2022/05/25 10:06:48;;;;;;;1.10;0.70;;;;;;;-128.00;-1.00;-1.00;100138;1299;1003324;-27
2022/05/25 10:09:19;;;;;;;2.10;0.90;;;;;;;-128.00;-1.00;-1.00;100184;1299;1004091;-25
2022/05/25 10:11:51;;;;;;;3.30;0.80;;;;;;;-128.00;-1.00;-1.00;100176;1299;1004080;-28
2022/05/25 10:14:23;;;;;;;1.20;0.80;;;;;;;-128.00;-1.00;-1.00;100168;1299;1003399;-29
2022/05/25 10:16:54;;;;;;;1.00;0.70;;;;;;;-128.00;-1.00;-1.00;100157;1299;1003550;-24
2022/05/25 10:19:23;;;;;;;1.20;0.60;;;;;;;-128.00;-1.00;-1.00;100172;1299;1003559;-30
2022/05/25 10:21:56;;;;;;;0.70;0.60;;;;;;;-128.00;-1.00;-1.00;100071;1299;1004267;-31
2022/05/25 10:24:27;;;;;;;1.70;1.00;;;;;;;-128.00;-1.00;-1.00;100135;1299;1004183;-23
2022/05/25 10:26:58;;;;;;;2.90;1.30;;;;;;;-128.00;-1.00;-1.00;100217;1299;1003264;-31
2022/05/25 10:37:22;;;;;;;2.30;0.80;;;;;;;-128.00;-1.00;-1.00;100141;1299;1003965;-29
2022/05/25 10:39:53;;;;;;;1.30;0.80;;;;;;;-128.00;-1.00;-1.00;100164;1299;1004106;-28
2022/05/25 10:42:28;;;;;;;2.00;0.90;;;;;;;-128.00;-1.00;-1.00;100144;1299;1004316;-24
2022/05/25 10:45:04;;;;;;;1.20;0.80;;;;;;;-128.00;-1.00;-1.00;100210;1299;1004498;-23
2022/05/25 10:47:37;;;;;;;2.80;1.10;;;;;;;-128.00;-1.00;-1.00;100154;1299;1003836;-28
2022/05/25 10:50:09;;;;;;;1.00;0.50;;;;;;;-128.00;-1.00;-1.00;100227;1299;1003798;-29
2022/05/25 10:52:41;;;;;;;0.50;0.40;;;;;;;-128.00;-1.00;-1.00;100038;1299;1004191;-28
2022/05/25 10:55:10;;;;;;;1.90;0.60;;;;;;;-128.00;-1.00;-1.00;100107;1299;1003871;-29
2022/05/25 10:57:46;;;;;;;3.00;1.40;;;;;;;-128.00;-1.00;-1.00;100164;1299;1002884;-29
2022/05/25 11:00:22;;;;;;;4.30;0.80;;;;;;;-128.00;-1.00;-1.00;100178;1299;1003857;-24
2022/05/25 11:02:54;;;;;;;2.40;0.90;;;;;;;-128.00;-1.00;-1.00;100059;1299;1003803;-26
2022/05/25 11:05:31;;;;;;;3.90;1.10;;;;;;;-128.00;-1.00;-1.00;100179;1299;1005105;-25
2022/05/25 11:08:09;;;;;;;1.20;0.70;;;;;;;-128.00;-1.00;-1.00;100097;1299;1004191;-24
2022/05/25 11:10:42;;;;;;;1.50;0.70;;;;;;;-128.00;-1.00;-1.00;100191;1299;1004665;-25
2022/05/25 11:13:14;;;;;;;0.80;0.50;;;;;;;-128.00;-1.00;-1.00;100203;1299;1003445;-31
2022/05/25 11:15:47;;;;;;;0.80;0.60;;;;;;;-128.00;-1.00;-1.00;100172;1299;1003640;-29
2022/05/25 11:18:34;;;;;;;1.60;0.80;;;;;;;-128.00;-1.00;-1.00;100197;1299;1003051;-26
2022/05/25 11:21:21;;;;;;;1.30;0.80;;;;;;;-128.00;-1.00;-1.00;100127;1299;1004211;-29
2022/05/25 11:23:57;;;;;;;0.90;0.70;;;;;;;-128.00;-1.00;-1.00;100159;1299;1004273;-30
2022/05/25 11:26:31;;;;;;;2.20;0.70;;;;;;;-128.00;-1.00;-1.00;100149;1299;1003929;-26
2022/05/25 11:29:00;;;;;;;6.50;0.70;;;;;;;-128.00;-1.00;-1.00;100172;1299;1003541;-23
2022/05/25 11:31:45;;;;;;;1.30;0.90;;;;;;;-128.00;-1.00;-1.00;100133;1299;1004261;-25
2022/05/25 11:34:18;;;;;;;1.40;0.90;;;;;;;-128.00;-1.00;-1.00;100119;1299;1003562;-28
2022/05/25 11:36:50;;;;;;;2.10;0.70;;;;;;;-128.00;-1.00;-1.00;100165;1298;1003604;-29
2022/05/25 11:39:20;;;;;;;0.70;0.50;;;;;;;-128.00;-1.00;-1.00;100156;1299;1003579;-26
2022/05/25 11:41:56;;;;;;;0.70;0.60;;;;;;;-128.00;-1.00;-1.00;100127;1299;1004018;-30
2022/05/25 11:44:33;;;;;;;1.00;0.70;;;;;;;-128.00;-1.00;-1.00;100175;1299;1003921;-24
2022/05/25 11:47:10;;;;;;;0.70;0.70;;;;;;;-128.00;-1.00;-1.00;100124;1299;1003196;-27
2022/05/25 11:49:46;;;;;;;1.40;0.90;;;;;;;-128.00;-1.00;-1.00;100183;1299;1003257;-27
2022/05/25 11:52:19;;;;;;;1.10;1.10;;;;;;;-128.00;-1.00;-1.00;100097;1299;1004232;-24
2022/05/25 11:54:52;;;;;;;0.80;0.60;;;;;;;-128.00;-1.00;-1.00;100155;1299;1003364;-25
2022/05/25 11:57:28;;;;;;;0.60;0.50;;;;;;;-128.00;-1.00;-1.00;100080;1299;1003108;-29
2022/05/25 12:00:05;;;;;;;1.50;1.00;;;;;;;-128.00;-1.00;-1.00;100159;1299;1002873;-24
2022/05/25 12:02:42;;;;;;;2.20;1.20;;;;;;;-128.00;-1.00;-1.00;100149;1299;1002794;-30
2022/05/25 12:05:17;;;;;;;2.20;1.10;;;;;;;-128.00;-1.00;-1.00;100159;1299;1003763;-26